Search for airport 
image banner adimage banner adimage banner ad
image banner ad

O20 - Kingdon Airpark

Located in Lodi, United States

ICAO - O20, IATA -

Data provided by Airmate  

General information

Coordinates: N38°5'30" W121°21'34"
Elevation is 15 feet MSL.
Magnetic variation is 16° East
View others Airports in California

Operational data

Special qualification required
Current time UTC:
Current local time:
Weather at : KSCK - Stockton Metropolitan ( 24 km )
METAR: KSCK 240755Z AUTO 33005KT 10SM CLR 16/12 A2994 RMK AO2 SLP138 T01610122 403000128
TAF: KSCK 240520Z 2406/2506 30010KT P6SM SKC FM250000 29012KT P6SM SKC
View NOTAMs / SUP AIP / TFR affecting this airport [VIEW]
Communications frequencies: [VIEW]

Runways:

RWY identifierQFULength (ft)Width (ft)SurfaceLDA (ft)
12370560ASPH
30370560ASPH

Airport contact information

Address: Lodi United States

Satellite view of O20